sensor_id;sensor_type;location;lat;lon;timestamp;P1;durP1;ratioP1;P2;durP2;ratioP2
40322;SDS011;26030;51.164;17.100;2024-02-21T00:04:44;5.90;;;2.40;;
40322;SDS011;26030;51.164;17.100;2024-02-21T00:09:48;7.50;;;2.60;;
40322;SDS011;26030;51.164;17.100;2024-02-21T00:14:53;5.40;;;2.40;;
40322;SDS011;26030;51.164;17.100;2024-02-21T00:19:58;4.50;;;2.40;;
40322;SDS011;26030;51.164;17.100;2024-02-21T00:25:03;4.90;;;2.00;;
40322;SDS011;26030;51.164;17.100;2024-02-21T00:30:08;7.20;;;2.70;;
40322;SDS011;26030;51.164;17.100;2024-02-21T00:35:13;4.00;;;2.10;;
40322;SDS011;26030;51.164;17.100;2024-02-21T00:40:18;5.60;;;2.00;;
40322;SDS011;26030;51.164;17.100;2024-02-21T00:45:24;4.40;;;2.20;;
40322;SDS011;26030;51.164;17.100;2024-02-21T00:50:29;3.40;;;2.10;;
40322;SDS011;26030;51.164;17.100;2024-02-21T00:55:34;3.30;;;2.20;;
40322;SDS011;26030;51.164;17.100;2024-02-21T01:00:38;4.50;;;2.20;;
40322;SDS011;26030;51.164;17.100;2024-02-21T01:05:42;6.40;;;2.50;;
40322;SDS011;26030;51.164;17.100;2024-02-21T01:10:46;2.80;;;2.00;;
40322;SDS011;26030;51.164;17.100;2024-02-21T01:15:51;4.70;;;1.90;;
40322;SDS011;26030;51.164;17.100;2024-02-21T01:20:56;4.00;;;1.90;;
40322;SDS011;26030;51.164;17.100;2024-02-21T01:26:02;3.10;;;2.10;;
40322;SDS011;26030;51.164;17.100;2024-02-21T01:31:07;3.60;;;2.10;;
40322;SDS011;26030;51.164;17.100;2024-02-21T01:36:12;4.00;;;1.80;;
40322;SDS011;26030;51.164;17.100;2024-02-21T01:41:16;3.80;;;1.60;;
40322;SDS011;26030;51.164;17.100;2024-02-21T01:46:21;4.00;;;1.80;;
40322;SDS011;26030;51.164;17.100;2024-02-21T01:51:25;3.40;;;2.00;;
40322;SDS011;26030;51.164;17.100;2024-02-21T01:56:31;2.80;;;2.40;;
40322;SDS011;26030;51.164;17.100;2024-02-21T02:01:35;3.40;;;1.90;;
40322;SDS011;26030;51.164;17.100;2024-02-21T02:06:41;4.10;;;1.90;;
40322;SDS011;26030;51.164;17.100;2024-02-21T02:11:45;3.00;;;2.00;;
40322;SDS011;26030;51.164;17.100;2024-02-21T02:16:50;4.50;;;1.70;;
40322;SDS011;26030;51.164;17.100;2024-02-21T02:22:06;3.40;;;2.10;;
40322;SDS011;26030;51.164;17.100;2024-02-21T02:27:12;3.00;;;1.70;;
40322;SDS011;26030;51.164;17.100;2024-02-21T02:32:16;1.80;;;1.40;;
40322;SDS011;26030;51.164;17.100;2024-02-21T02:37:21;3.30;;;1.70;;
40322;SDS011;26030;51.164;17.100;2024-02-21T02:42:26;2.40;;;1.50;;
40322;SDS011;26030;51.164;17.100;2024-02-21T02:47:30;2.30;;;1.40;;
40322;SDS011;26030;51.164;17.100;2024-02-21T02:52:35;3.70;;;1.90;;
40322;SDS011;26030;51.164;17.100;2024-02-21T02:57:39;3.10;;;1.60;;
40322;SDS011;26030;51.164;17.100;2024-02-21T03:02:49;2.50;;;1.70;;
40322;SDS011;26030;51.164;17.100;2024-02-21T03:07:54;3.00;;;1.60;;
40322;SDS011;26030;51.164;17.100;2024-02-21T03:12:58;3.10;;;1.80;;
40322;SDS011;26030;51.164;17.100;2024-02-21T03:18:04;2.10;;;1.60;;
40322;SDS011;26030;51.164;17.100;2024-02-21T03:23:08;2.70;;;1.70;;
40322;SDS011;26030;51.164;17.100;2024-02-21T03:28:13;1.80;;;1.40;;
40322;SDS011;26030;51.164;17.100;2024-02-21T03:33:17;2.70;;;1.50;;
40322;SDS011;26030;51.164;17.100;2024-02-21T03:38:21;3.40;;;1.60;;
40322;SDS011;26030;51.164;17.100;2024-02-21T03:43:25;2.00;;;1.40;;
40322;SDS011;26030;51.164;17.100;2024-02-21T03:48:29;1.70;;;1.50;;
40322;SDS011;26030;51.164;17.100;2024-02-21T03:53:34;2.20;;;1.40;;
40322;SDS011;26030;51.164;17.100;2024-02-21T03:58:38;2.40;;;1.40;;
40322;SDS011;26030;51.164;17.100;2024-02-21T04:03:44;2.20;;;1.50;;
40322;SDS011;26030;51.164;17.100;2024-02-21T04:08:48;3.60;;;1.50;;
40322;SDS011;26030;51.164;17.100;2024-02-21T04:13:53;1.50;;;1.30;;
40322;SDS011;26030;51.164;17.100;2024-02-21T04:18:57;4.90;;;1.40;;
40322;SDS011;26030;51.164;17.100;2024-02-21T04:24:03;2.50;;;1.50;;
40322;SDS011;26030;51.164;17.100;2024-02-21T04:29:10;2.70;;;1.30;;
40322;SDS011;26030;51.164;17.100;2024-02-21T04:34:15;1.90;;;1.40;;
40322;SDS011;26030;51.164;17.100;2024-02-21T04:39:20;1.90;;;1.60;;
40322;SDS011;26030;51.164;17.100;2024-02-21T04:44:24;2.60;;;1.50;;
40322;SDS011;26030;51.164;17.100;2024-02-21T04:49:29;2.90;;;1.40;;
40322;SDS011;26030;51.164;17.100;2024-02-21T04:54:36;1.80;;;1.50;;
40322;SDS011;26030;51.164;17.100;2024-02-21T04:59:40;2.60;;;1.50;;
40322;SDS011;26030;51.164;17.100;2024-02-21T05:04:45;1.70;;;1.10;;
40322;SDS011;26030;51.164;17.100;2024-02-21T05:09:49;1.40;;;1.20;;
40322;SDS011;26030;51.164;17.100;2024-02-21T05:14:54;2.70;;;1.40;;
40322;SDS011;26030;51.164;17.100;2024-02-21T05:19:59;1.80;;;1.60;;
40322;SDS011;26030;51.164;17.100;2024-02-21T05:25:04;1.60;;;1.40;;
40322;SDS011;26030;51.164;17.100;2024-02-21T05:30:09;1.50;;;1.10;;
40322;SDS011;26030;51.164;17.100;2024-02-21T05:35:14;1.60;;;1.40;;
40322;SDS011;26030;51.164;17.100;2024-02-21T05:40:19;1.70;;;1.30;;
40322;SDS011;26030;51.164;17.100;2024-02-21T05:45:23;1.60;;;1.10;;
40322;SDS011;26030;51.164;17.100;2024-02-21T05:50:27;1.50;;;1.20;;
40322;SDS011;26030;51.164;17.100;2024-02-21T05:55:32;1.50;;;1.40;;
40322;SDS011;26030;51.164;17.100;2024-02-21T06:00:37;3.20;;;1.40;;
40322;SDS011;26030;51.164;17.100;2024-02-21T06:05:41;1.20;;;1.10;;
40322;SDS011;26030;51.164;17.100;2024-02-21T06:10:46;1.70;;;1.20;;
40322;SDS011;26030;51.164;17.100;2024-02-21T06:15:53;1.20;;;1.10;;
40322;SDS011;26030;51.164;17.100;2024-02-21T06:20:57;2.20;;;1.30;;
40322;SDS011;26030;51.164;17.100;2024-02-21T06:26:01;1.90;;;1.30;;
40322;SDS011;26030;51.164;17.100;2024-02-21T06:31:07;1.60;;;1.20;;
40322;SDS011;26030;51.164;17.100;2024-02-21T06:36:11;1.40;;;1.10;;
40322;SDS011;26030;51.164;17.100;2024-02-21T06:41:19;1.90;;;1.30;;
40322;SDS011;26030;51.164;17.100;2024-02-21T06:46:27;1.80;;;1.30;;
40322;SDS011;26030;51.164;17.100;2024-02-21T06:51:35;6.10;;;2.10;;
40322;SDS011;26030;51.164;17.100;2024-02-21T06:56:40;1.60;;;1.20;;
40322;SDS011;26030;51.164;17.100;2024-02-21T07:01:49;5.50;;;1.70;;
40322;SDS011;26030;51.164;17.100;2024-02-21T07:06:54;2.50;;;1.40;;
40322;SDS011;26030;51.164;17.100;2024-02-21T07:11:59;3.20;;;1.40;;
40322;SDS011;26030;51.164;17.100;2024-02-21T07:17:04;2.00;;;1.50;;
40322;SDS011;26030;51.164;17.100;2024-02-21T07:22:09;2.00;;;1.40;;
40322;SDS011;26030;51.164;17.100;2024-02-21T07:27:15;3.00;;;1.30;;
40322;SDS011;26030;51.164;17.100;2024-02-21T07:32:19;4.10;;;1.40;;
40322;SDS011;26030;51.164;17.100;2024-02-21T07:37:25;2.50;;;1.30;;
40322;SDS011;26030;51.164;17.100;2024-02-21T07:42:31;4.30;;;1.20;;
40322;SDS011;26030;51.164;17.100;2024-02-21T07:47:36;3.10;;;1.50;;
40322;SDS011;26030;51.164;17.100;2024-02-21T07:52:41;4.10;;;1.50;;
40322;SDS011;26030;51.164;17.100;2024-02-21T07:57:46;6.80;;;1.60;;
40322;SDS011;26030;51.164;17.100;2024-02-21T08:02:51;4.80;;;2.10;;
40322;SDS011;26030;51.164;17.100;2024-02-21T08:07:56;2.20;;;1.80;;
40322;SDS011;26030;51.164;17.100;2024-02-21T08:13:01;2.40;;;1.40;;
40322;SDS011;26030;51.164;17.100;2024-02-21T08:18:07;2.70;;;1.50;;
40322;SDS011;26030;51.164;17.100;2024-02-21T08:23:15;2.80;;;1.80;;
40322;SDS011;26030;51.164;17.100;2024-02-21T08:28:20;4.20;;;1.40;;
40322;SDS011;26030;51.164;17.100;2024-02-21T08:33:25;1.60;;;1.20;;
40322;SDS011;26030;51.164;17.100;2024-02-21T08:38:30;2.30;;;1.40;;
40322;SDS011;26030;51.164;17.100;2024-02-21T08:43:34;1.90;;;1.30;;
40322;SDS011;26030;51.164;17.100;2024-02-21T08:48:40;3.40;;;1.30;;
40322;SDS011;26030;51.164;17.100;2024-02-21T08:53:46;1.70;;;1.30;;
40322;SDS011;26030;51.164;17.100;2024-02-21T08:58:50;1.80;;;1.40;;
40322;SDS011;26030;51.164;17.100;2024-02-21T09:03:55;1.90;;;1.40;;
40322;SDS011;26030;51.164;17.100;2024-02-21T09:09:01;3.20;;;2.30;;
40322;SDS011;26030;51.164;17.100;2024-02-21T09:14:05;3.50;;;1.70;;
40322;SDS011;26030;51.164;17.100;2024-02-21T09:19:10;3.60;;;1.60;;
40322;SDS011;26030;51.164;17.100;2024-02-21T09:24:15;1.80;;;1.40;;
40322;SDS011;26030;51.164;17.100;2024-02-21T09:29:20;4.60;;;1.70;;
40322;SDS011;26030;51.164;17.100;2024-02-21T09:34:30;2.20;;;1.40;;
40322;SDS011;26030;51.164;17.100;2024-02-21T09:39:35;1.80;;;1.60;;
40322;SDS011;26030;51.164;17.100;2024-02-21T09:44:40;2.20;;;1.60;;
40322;SDS011;26030;51.164;17.100;2024-02-21T09:49:47;1.90;;;1.30;;
40322;SDS011;26030;51.164;17.100;2024-02-21T09:54:53;1.70;;;1.30;;
40322;SDS011;26030;51.164;17.100;2024-02-21T09:59:58;1.70;;;1.50;;
40322;SDS011;26030;51.164;17.100;2024-02-21T10:05:04;2.90;;;1.40;;
40322;SDS011;26030;51.164;17.100;2024-02-21T10:10:12;1.90;;;1.30;;
40322;SDS011;26030;51.164;17.100;2024-02-21T10:15:20;3.20;;;1.60;;
40322;SDS011;26030;51.164;17.100;2024-02-21T10:25:34;2.50;;;1.50;;
40322;SDS011;26030;51.164;17.100;2024-02-21T10:30:50;3.80;;;1.50;;
40322;SDS011;26030;51.164;17.100;2024-02-21T10:36:06;3.00;;;1.50;;
40322;SDS011;26030;51.164;17.100;2024-02-21T10:41:14;2.70;;;1.70;;
40322;SDS011;26030;51.164;17.100;2024-02-21T10:46:23;2.00;;;1.70;;
40322;SDS011;26030;51.164;17.100;2024-02-21T10:51:33;4.10;;;1.70;;
40322;SDS011;26030;51.164;17.100;2024-02-21T10:56:39;2.40;;;1.20;;
40322;SDS011;26030;51.164;17.100;2024-02-21T11:01:45;1.90;;;1.60;;
40322;SDS011;26030;51.164;17.100;2024-02-21T11:06:50;3.10;;;1.70;;
40322;SDS011;26030;51.164;17.100;2024-02-21T11:11:56;1.80;;;1.40;;
40322;SDS011;26030;51.164;17.100;2024-02-21T11:17:14;1.60;;;1.30;;
40322;SDS011;26030;51.164;17.100;2024-02-21T11:22:20;1.70;;;1.20;;
40322;SDS011;26030;51.164;17.100;2024-02-21T11:27:26;1.70;;;1.60;;
40322;SDS011;26030;51.164;17.100;2024-02-21T11:32:31;1.60;;;1.40;;
40322;SDS011;26030;51.164;17.100;2024-02-21T11:37:36;2.30;;;1.30;;
40322;SDS011;26030;51.164;17.100;2024-02-21T11:42:41;2.30;;;1.30;;
40322;SDS011;26030;51.164;17.100;2024-02-21T11:47:46;2.10;;;1.60;;
40322;SDS011;26030;51.164;17.100;2024-02-21T11:52:51;1.50;;;1.40;;
40322;SDS011;26030;51.164;17.100;2024-02-21T11:57:58;2.10;;;1.40;;
40322;SDS011;26030;51.164;17.100;2024-02-21T12:03:04;2.00;;;1.50;;
40322;SDS011;26030;51.164;17.100;2024-02-21T12:08:08;2.40;;;1.50;;
40322;SDS011;26030;51.164;17.100;2024-02-21T12:13:13;2.10;;;1.60;;
40322;SDS011;26030;51.164;17.100;2024-02-21T12:18:19;3.00;;;1.60;;
40322;SDS011;26030;51.164;17.100;2024-02-21T12:23:27;3.10;;;1.90;;
40322;SDS011;26030;51.164;17.100;2024-02-21T12:28:31;33.90;;;10.80;;
40322;SDS011;26030;51.164;17.100;2024-02-21T12:33:36;20.90;;;9.50;;
40322;SDS011;26030;51.164;17.100;2024-02-21T12:38:41;22.60;;;8.90;;
40322;SDS011;26030;51.164;17.100;2024-02-21T12:43:47;18.00;;;8.60;;
40322;SDS011;26030;51.164;17.100;2024-02-21T12:48:52;16.60;;;8.90;;
40322;SDS011;26030;51.164;17.100;2024-02-21T12:53:57;16.70;;;8.90;;
40322;SDS011;26030;51.164;17.100;2024-02-21T12:59:02;17.20;;;7.90;;
40322;SDS011;26030;51.164;17.100;2024-02-21T13:04:07;14.70;;;7.50;;
40322;SDS011;26030;51.164;17.100;2024-02-21T13:09:12;17.90;;;7.90;;
40322;SDS011;26030;51.164;17.100;2024-02-21T13:14:19;11.20;;;6.10;;
40322;SDS011;26030;51.164;17.100;2024-02-21T13:19:24;10.50;;;5.10;;
40322;SDS011;26030;51.164;17.100;2024-02-21T13:24:30;11.10;;;5.70;;
40322;SDS011;26030;51.164;17.100;2024-02-21T13:29:39;8.80;;;4.90;;
40322;SDS011;26030;51.164;17.100;2024-02-21T13:34:47;6.50;;;4.30;;
40322;SDS011;26030;51.164;17.100;2024-02-21T13:39:53;10.60;;;4.40;;
40322;SDS011;26030;51.164;17.100;2024-02-21T13:44:58;8.80;;;4.60;;
40322;SDS011;26030;51.164;17.100;2024-02-21T13:50:04;7.10;;;4.50;;
40322;SDS011;26030;51.164;17.100;2024-02-21T13:55:09;6.40;;;3.80;;
40322;SDS011;26030;51.164;17.100;2024-02-21T14:00:14;8.10;;;4.10;;
40322;SDS011;26030;51.164;17.100;2024-02-21T14:05:19;7.00;;;3.40;;
40322;SDS011;26030;51.164;17.100;2024-02-21T14:10:28;4.70;;;3.40;;
40322;SDS011;26030;51.164;17.100;2024-02-21T14:15:33;5.80;;;3.80;;
40322;SDS011;26030;51.164;17.100;2024-02-21T14:20:39;5.40;;;4.10;;
40322;SDS011;26030;51.164;17.100;2024-02-21T14:25:43;6.60;;;3.20;;
40322;SDS011;26030;51.164;17.100;2024-02-21T14:30:48;6.40;;;3.80;;
40322;SDS011;26030;51.164;17.100;2024-02-21T14:35:58;3.80;;;3.30;;
40322;SDS011;26030;51.164;17.100;2024-02-21T14:41:04;5.00;;;3.00;;
40322;SDS011;26030;51.164;17.100;2024-02-21T14:46:09;4.30;;;3.30;;
40322;SDS011;26030;51.164;17.100;2024-02-21T14:51:16;5.20;;;3.30;;
40322;SDS011;26030;51.164;17.100;2024-02-21T14:56:22;3.40;;;2.60;;
40322;SDS011;26030;51.164;17.100;2024-02-21T15:01:28;4.80;;;3.80;;
40322;SDS011;26030;51.164;17.100;2024-02-21T15:06:39;5.00;;;3.10;;
40322;SDS011;26030;51.164;17.100;2024-02-21T15:11:47;2.90;;;2.50;;
40322;SDS011;26030;51.164;17.100;2024-02-21T15:16:55;3.70;;;2.80;;
40322;SDS011;26030;51.164;17.100;2024-02-21T15:22:01;3.90;;;2.80;;
40322;SDS011;26030;51.164;17.100;2024-02-21T15:27:07;3.30;;;2.30;;
40322;SDS011;26030;51.164;17.100;2024-02-21T15:32:13;2.80;;;2.40;;
40322;SDS011;26030;51.164;17.100;2024-02-21T15:37:18;3.40;;;2.40;;
40322;SDS011;26030;51.164;17.100;2024-02-21T15:42:24;3.10;;;2.50;;
40322;SDS011;26030;51.164;17.100;2024-02-21T15:47:30;2.30;;;2.10;;
40322;SDS011;26030;51.164;17.100;2024-02-21T15:52:35;2.60;;;2.40;;
40322;SDS011;26030;51.164;17.100;2024-02-21T15:57:40;3.60;;;3.00;;
40322;SDS011;26030;51.164;17.100;2024-02-21T16:02:53;4.40;;;3.00;;
40322;SDS011;26030;51.164;17.100;2024-02-21T16:08:00;8.10;;;3.50;;
40322;SDS011;26030;51.164;17.100;2024-02-21T16:13:14;3.00;;;2.50;;
40322;SDS011;26030;51.164;17.100;2024-02-21T16:18:34;3.50;;;2.90;;
40322;SDS011;26030;51.164;17.100;2024-02-21T16:23:39;18.50;;;3.10;;
40322;SDS011;26030;51.164;17.100;2024-02-21T16:28:50;4.90;;;2.90;;
40322;SDS011;26030;51.164;17.100;2024-02-21T16:33:57;5.60;;;3.20;;
40322;SDS011;26030;51.164;17.100;2024-02-21T16:39:03;6.50;;;3.20;;
40322;SDS011;26030;51.164;17.100;2024-02-21T16:44:14;4.60;;;3.30;;
40322;SDS011;26030;51.164;17.100;2024-02-21T16:49:25;7.30;;;2.60;;
40322;SDS011;26030;51.164;17.100;2024-02-21T16:54:41;5.40;;;2.90;;
40322;SDS011;26030;51.164;17.100;2024-02-21T17:00:08;6.10;;;2.90;;
40322;SDS011;26030;51.164;17.100;2024-02-21T17:05:15;8.20;;;3.20;;
40322;SDS011;26030;51.164;17.100;2024-02-21T17:10:22;5.00;;;2.80;;
40322;SDS011;26030;51.164;17.100;2024-02-21T17:15:27;3.40;;;2.70;;
40322;SDS011;26030;51.164;17.100;2024-02-21T17:20:32;5.40;;;2.60;;
40322;SDS011;26030;51.164;17.100;2024-02-21T17:25:39;6.70;;;3.40;;
40322;SDS011;26030;51.164;17.100;2024-02-21T17:30:44;3.10;;;2.30;;
40322;SDS011;26030;51.164;17.100;2024-02-21T17:35:49;7.60;;;3.00;;
40322;SDS011;26030;51.164;17.100;2024-02-21T17:40:54;4.70;;;3.40;;
40322;SDS011;26030;51.164;17.100;2024-02-21T17:46:02;6.20;;;3.20;;
40322;SDS011;26030;51.164;17.100;2024-02-21T17:51:06;5.10;;;3.20;;
40322;SDS011;26030;51.164;17.100;2024-02-21T17:56:11;7.60;;;3.10;;
40322;SDS011;26030;51.164;17.100;2024-02-21T18:01:16;7.80;;;3.40;;
40322;SDS011;26030;51.164;17.100;2024-02-21T18:06:21;4.60;;;2.70;;
40322;SDS011;26030;51.164;17.100;2024-02-21T18:11:26;5.30;;;3.10;;
40322;SDS011;26030;51.164;17.100;2024-02-21T18:16:31;5.50;;;3.50;;
40322;SDS011;26030;51.164;17.100;2024-02-21T18:21:36;8.40;;;3.00;;
40322;SDS011;26030;51.164;17.100;2024-02-21T18:26:45;11.00;;;3.80;;
40322;SDS011;26030;51.164;17.100;2024-02-21T18:31:53;11.00;;;3.90;;
40322;SDS011;26030;51.164;17.100;2024-02-21T18:36:58;5.20;;;3.20;;
40322;SDS011;26030;51.164;17.100;2024-02-21T18:42:04;6.60;;;3.80;;
40322;SDS011;26030;51.164;17.100;2024-02-21T18:47:11;8.80;;;3.80;;
40322;SDS011;26030;51.164;17.100;2024-02-21T18:52:16;6.30;;;3.60;;
40322;SDS011;26030;51.164;17.100;2024-02-21T18:57:24;11.00;;;4.30;;
40322;SDS011;26030;51.164;17.100;2024-02-21T19:02:28;6.10;;;4.00;;
40322;SDS011;26030;51.164;17.100;2024-02-21T19:07:33;10.00;;;4.00;;
40322;SDS011;26030;51.164;17.100;2024-02-21T19:12:42;8.80;;;4.30;;
40322;SDS011;26030;51.164;17.100;2024-02-21T19:17:48;6.30;;;4.70;;
40322;SDS011;26030;51.164;17.100;2024-02-21T19:23:02;8.40;;;4.90;;
40322;SDS011;26030;51.164;17.100;2024-02-21T19:28:15;9.40;;;4.80;;
40322;SDS011;26030;51.164;17.100;2024-02-21T19:33:20;6.90;;;4.80;;
40322;SDS011;26030;51.164;17.100;2024-02-21T19:38:25;9.40;;;4.50;;
40322;SDS011;26030;51.164;17.100;2024-02-21T19:43:30;6.30;;;4.50;;
40322;SDS011;26030;51.164;17.100;2024-02-21T19:48:35;11.10;;;4.80;;
40322;SDS011;26030;51.164;17.100;2024-02-21T19:53:39;9.40;;;4.40;;
40322;SDS011;26030;51.164;17.100;2024-02-21T19:58:44;10.80;;;5.00;;
40322;SDS011;26030;51.164;17.100;2024-02-21T20:03:49;10.00;;;5.10;;
40322;SDS011;26030;51.164;17.100;2024-02-21T20:08:54;17.90;;;5.10;;
40322;SDS011;26030;51.164;17.100;2024-02-21T20:14:02;11.50;;;5.70;;
40322;SDS011;26030;51.164;17.100;2024-02-21T20:19:11;17.90;;;5.60;;
40322;SDS011;26030;51.164;17.100;2024-02-21T20:24:18;12.80;;;6.40;;
40322;SDS011;26030;51.164;17.100;2024-02-21T20:29:38;18.20;;;5.80;;
40322;SDS011;26030;51.164;17.100;2024-02-21T20:34:43;14.30;;;6.20;;
40322;SDS011;26030;51.164;17.100;2024-02-21T20:39:48;11.20;;;5.60;;
40322;SDS011;26030;51.164;17.100;2024-02-21T20:44:53;15.70;;;6.00;;
40322;SDS011;26030;51.164;17.100;2024-02-21T20:49:58;19.20;;;5.40;;
40322;SDS011;26030;51.164;17.100;2024-02-21T20:55:03;10.50;;;5.20;;
40322;SDS011;26030;51.164;17.100;2024-02-21T21:00:15;10.20;;;4.90;;
40322;SDS011;26030;51.164;17.100;2024-02-21T21:05:20;7.20;;;4.70;;
40322;SDS011;26030;51.164;17.100;2024-02-21T21:10:25;10.40;;;5.20;;
40322;SDS011;26030;51.164;17.100;2024-02-21T21:15:30;16.10;;;4.50;;
40322;SDS011;26030;51.164;17.100;2024-02-21T21:20:37;11.80;;;4.70;;
40322;SDS011;26030;51.164;17.100;2024-02-21T21:25:42;9.30;;;5.30;;
40322;SDS011;26030;51.164;17.100;2024-02-21T21:30:47;17.40;;;4.90;;
40322;SDS011;26030;51.164;17.100;2024-02-21T21:36:00;7.50;;;4.70;;
40322;SDS011;26030;51.164;17.100;2024-02-21T21:41:05;11.70;;;5.10;;
40322;SDS011;26030;51.164;17.100;2024-02-21T21:46:13;8.80;;;5.00;;
40322;SDS011;26030;51.164;17.100;2024-02-21T21:51:21;10.60;;;4.60;;
40322;SDS011;26030;51.164;17.100;2024-02-21T21:56:27;9.90;;;4.70;;
40322;SDS011;26030;51.164;17.100;2024-02-21T22:01:34;14.80;;;5.60;;
40322;SDS011;26030;51.164;17.100;2024-02-21T22:06:38;10.50;;;4.70;;
40322;SDS011;26030;51.164;17.100;2024-02-21T22:11:45;8.30;;;4.90;;
40322;SDS011;26030;51.164;17.100;2024-02-21T22:16:53;11.80;;;5.30;;
40322;SDS011;26030;51.164;17.100;2024-02-21T22:21:58;18.10;;;6.80;;
40322;SDS011;26030;51.164;17.100;2024-02-21T22:27:07;18.30;;;7.20;;
40322;SDS011;26030;51.164;17.100;2024-02-21T22:32:16;14.00;;;6.80;;
40322;SDS011;26030;51.164;17.100;2024-02-21T22:37:25;13.80;;;6.50;;
40322;SDS011;26030;51.164;17.100;2024-02-21T22:42:33;11.90;;;6.20;;
40322;SDS011;26030;51.164;17.100;2024-02-21T22:47:40;15.00;;;6.30;;
40322;SDS011;26030;51.164;17.100;2024-02-21T22:52:45;13.50;;;6.60;;
40322;SDS011;26030;51.164;17.100;2024-02-21T22:57:57;11.00;;;5.60;;
40322;SDS011;26030;51.164;17.100;2024-02-21T23:03:05;13.50;;;5.90;;
40322;SDS011;26030;51.164;17.100;2024-02-21T23:08:15;12.30;;;6.10;;
40322;SDS011;26030;51.164;17.100;2024-02-21T23:13:20;11.10;;;5.50;;
40322;SDS011;26030;51.164;17.100;2024-02-21T23:18:25;12.80;;;6.20;;
40322;SDS011;26030;51.164;17.100;2024-02-21T23:23:30;10.30;;;6.00;;
40322;SDS011;26030;51.164;17.100;2024-02-21T23:28:34;7.80;;;5.40;;
40322;SDS011;26030;51.164;17.100;2024-02-21T23:33:39;10.30;;;6.50;;
40322;SDS011;26030;51.164;17.100;2024-02-21T23:38:46;11.30;;;6.00;;
40322;SDS011;26030;51.164;17.100;2024-02-21T23:43:52;9.70;;;5.70;;
40322;SDS011;26030;51.164;17.100;2024-02-21T23:48:59;9.60;;;6.30;;
40322;SDS011;26030;51.164;17.100;2024-02-21T23:54:07;8.10;;;5.80;;
40322;SDS011;26030;51.164;17.100;2024-02-21T23:59:12;9.70;;;5.40;;
